Aviation Digital Data Service (ADDS)

Output produced by METARs form (0954 UTC 19 November 2018)
found at http://www.aviationweather.gov/metar/data/
 
RJCH 190900Z 32009KT 300V360 9999 FEW020 SCT040 06/M01 Q1014
TAF RJCH 190512Z 1906/2012 32006KT 9999 FEW020 BKN040